Great Bend, KS

2:40 AM CDT on September 22, 2017 (GMT -0500)
Great Bend Municipal

Weather History for KGBD - February, 2014

Change the Weather History Date:

Friday, February 7, 2014

  Actual Average Record
Temperature  
Mean Temperature 9 °F -  
Max Temperature 15 °F 45 °F 75 °F (2015)
Min Temperature 3 °F 18 °F 3 °F (2014)
Degree Days  
Heating Degree Days 56    
Moisture  
Dew Point 3 °F    
Average Humidity 71    
Maximum Humidity 86    
Minimum Humidity 61    
Precipitation  
Precipitation 0.00 in - - ()
Sea Level Pressure  
Sea Level Pressure 30.18 in    
Wind  
Wind Speed 10 mph (SSE)    
Max Wind Speed 15 mph    
Max Gust Speed -    
Visibility 8 miles    
Events      
Averages and records for this station are not official NWS values.
T = Trace of Precipitation, MM = Missing Value Source: NWS Daily Summary

Daily Weather History Graph

Daily Weather History Graph

Search for Another Location

Airport or City:

Trip Planner

Search our weather history database for the weather conditions in past years. The results will help you decide how hot, cold, wet, or windy it might be!

Date:

Astronomy

Feb. 07, 2014 Rise Set
Actual Time 7:34 AM CST 6:04 PM CST
Civil Twilight 7:07 AM CST 6:32 PM CST
Nautical Twilight 6:35 AM CST 7:03 PM CST
Astronomical Twilight 6:05 AM CST 7:34 PM CST
Moon 12:18 PM CST (2/7) 1:51 AM CST (2/7)
Length of Visible Light 11h 25m
Length of Day
10h 30m
First Quarter, 59% of the Moon is Illuminated
Feb 7
First Quarter
Feb 14
Full
Feb 22
Last Quarter
Mar 1
New
Mar 8
First Quarter

Hourly Weather History & Observations

Time (CST) Temp. Windchill Dew Point Humidity Pressure Visibility Wind Dir Wind Speed Gust Speed Precip Events Conditions
12:15 AM 6.8 °F -4.8 °F -4.0 °F 61% 30.32 in 10.0 mi SSE 6.9 mph - N/A   Overcast
12:35 AM 6.8 °F -5.9 °F -4.0 °F 61% 30.32 in 10.0 mi SSE 8.1 mph - N/A   Overcast
12:55 AM 6.8 °F -6.9 °F -4.0 °F 61% 30.32 in 10.0 mi South 9.2 mph - N/A   Overcast
1:15 AM 6.8 °F -5.9 °F -4.0 °F 61% 30.31 in 10.0 mi South 8.1 mph - N/A   Overcast
1:35 AM 6.8 °F -6.9 °F -4.0 °F 61% 30.31 in 10.0 mi South 9.2 mph - N/A   Overcast
1:55 AM 6.8 °F -6.9 °F -4.0 °F 61% 30.30 in 10.0 mi South 9.2 mph - N/A   Overcast
2:15 AM 5.0 °F -8.1 °F -4.0 °F 66% 30.30 in 10.0 mi South 8.1 mph - N/A   Overcast
2:35 AM 3.2 °F -7.8 °F -5.8 °F 66% 30.30 in 10.0 mi South 5.8 mph - N/A   Overcast
2:55 AM 3.2 °F -7.8 °F -5.8 °F 66% 30.30 in 10.0 mi South 5.8 mph - N/A   Mostly Cloudy
3:15 AM 3.2 °F -6.2 °F -5.8 °F 66% 30.28 in 10.0 mi SSE 4.6 mph - N/A   Overcast
3:35 AM 3.2 °F -6.2 °F -5.8 °F 66% 30.27 in 10.0 mi SSE 4.6 mph - N/A   Overcast
3:55 AM 3.2 °F -10.3 °F -5.8 °F 66% 30.27 in 10.0 mi SSE 8.1 mph - N/A   Overcast
4:15 AM 5.0 °F -6.9 °F -4.0 °F 66% 30.27 in 10.0 mi SSE 6.9 mph - N/A   Overcast
4:35 AM 5.0 °F -9.1 °F -4.0 °F 66% 30.26 in 10.0 mi SSE 9.2 mph - N/A   Overcast
4:55 AM 5.0 °F -8.1 °F -4.0 °F 66% 30.26 in 10.0 mi SSE 8.1 mph - N/A   Overcast
5:15 AM 5.0 °F -10.0 °F -2.2 °F 72% 30.25 in 10.0 mi South 10.4 mph - N/A   Overcast
5:35 AM 6.8 °F -6.9 °F -2.2 °F 67% 30.25 in 10.0 mi SSE 9.2 mph - N/A   Overcast
5:55 AM 6.8 °F -7.8 °F -2.2 °F 67% 30.24 in 10.0 mi South 10.4 mph - N/A   Overcast
6:15 AM 6.8 °F -8.6 °F -2.2 °F 67% 30.24 in 10.0 mi South 11.5 mph - N/A   Overcast
6:35 AM 6.8 °F -10.0 °F -2.2 °F 67% 30.23 in 10.0 mi South 13.8 mph - N/A   Overcast
6:55 AM 6.8 °F -7.8 °F -2.2 °F 67% 30.23 in 10.0 mi South 10.4 mph - N/A   Overcast
7:15 AM 6.8 °F -8.6 °F -2.2 °F 67% 30.23 in 10.0 mi South 11.5 mph - N/A   Overcast
7:35 AM 6.8 °F -6.9 °F -2.2 °F 67% 30.22 in 10.0 mi SSE 9.2 mph - N/A   Overcast
7:55 AM 6.8 °F -9.3 °F -2.2 °F 67% 30.22 in 10.0 mi South 12.7 mph - N/A   Overcast
8:15 AM 6.8 °F -6.9 °F -2.2 °F 67% 30.22 in 10.0 mi SSE 9.2 mph - N/A   Overcast
8:35 AM 6.8 °F -7.8 °F -2.2 °F 67% 30.23 in 10.0 mi SSE 10.4 mph - N/A   Overcast
8:55 AM 6.8 °F -9.3 °F -0.4 °F 72% 30.23 in 10.0 mi South 12.7 mph - N/A   Overcast
9:15 AM 8.6 °F -8.3 °F -0.4 °F 67% 30.24 in 10.0 mi South 15.0 mph - N/A   Overcast
9:35 AM 8.6 °F -7.7 °F -0.4 °F 67% 30.24 in 10.0 mi SSE 13.8 mph - N/A   Overcast
9:55 AM 8.6 °F -7.7 °F -0.4 °F 67% 30.24 in 10.0 mi South 13.8 mph - N/A   Overcast
10:15 AM 8.6 °F -6.3 °F 1.4 °F 73% 30.23 in 10.0 mi South 11.5 mph - N/A   Overcast
10:35 AM 8.6 °F -7.0 °F 1.4 °F 73% 30.23 in 10.0 mi South 12.7 mph - N/A   Overcast
10:55 AM 10.4 °F -6.0 °F 1.4 °F 67% 30.23 in 10.0 mi South 15.0 mph - N/A   Overcast
11:15 AM 10.4 °F -4.8 °F 1.4 °F 67% 30.22 in 7.0 mi South 12.7 mph - N/A   Overcast
11:35 AM 10.4 °F -6.0 °F 1.4 °F 67% 30.21 in 8.0 mi South 15.0 mph - N/A   Overcast
11:55 AM 10.4 °F -4.1 °F 3.2 °F 73% 30.21 in 6.0 mi South 11.5 mph - N/A   Overcast
12:15 PM 12.2 °F -1.0 °F 3.2 °F 67% 30.20 in 10.0 mi South 10.4 mph - N/A   Overcast
12:35 PM 12.2 °F -1.8 °F 3.2 °F 67% 30.17 in 9.0 mi South 11.5 mph - N/A   Overcast
12:55 PM 12.2 °F -1.0 °F 5.0 °F 73% 30.16 in 9.0 mi South 10.4 mph - N/A   Overcast
1:15 PM 12.2 °F -3.1 °F 5.0 °F 73% 30.15 in 8.0 mi South 13.8 mph - N/A   Overcast
1:35 PM 12.2 °F -1.0 °F 6.8 °F 79% 30.14 in 9.0 mi South 10.4 mph - N/A   Overcast
1:55 PM 14.0 °F 3.9 °F 6.8 °F 73% 30.13 in 9.0 mi South 6.9 mph - N/A   Overcast
2:15 PM 14.0 °F 0.5 °F 6.8 °F 73% 30.12 in 7.0 mi South 11.5 mph - N/A   Overcast
2:35 PM 14.0 °F 1.2 °F 6.8 °F 73% 30.10 in 4.0 mi SSE 10.4 mph - N/A   Overcast
2:55 PM 15.8 °F 3.4 °F 8.6 °F 73% 30.10 in 4.0 mi South 10.4 mph - N/A   Overcast
3:15 PM 14.0 °F -0.2 °F 6.8 °F 73% 30.10 in 5.0 mi South 12.7 mph - N/A   Overcast
3:35 PM 15.8 °F 2.7 °F 8.6 °F 73% 30.09 in 5.0 mi South 11.5 mph - N/A   Overcast
3:55 PM 15.8 °F 4.2 °F 6.8 °F 68% 30.09 in 5.0 mi South 9.2 mph - N/A   Overcast
4:15 PM 15.8 °F 2.1 °F 6.8 °F 68% 30.08 in 4.0 mi South 12.7 mph - N/A   Overcast
4:35 PM 15.8 °F 2.1 °F 8.6 °F 73% 30.07 in 5.0 mi South 12.7 mph - N/A   Overcast
4:55 PM 15.8 °F 3.4 °F 8.6 °F 73% 30.09 in 5.0 mi South 10.4 mph - N/A   Overcast
5:15 PM 14.0 °F 0.5 °F 8.6 °F 79% 30.08 in 5.0 mi SSE 11.5 mph - N/A   Overcast
5:35 PM 15.8 °F 2.7 °F 8.6 °F 73% 30.10 in 5.0 mi South 11.5 mph - N/A   Overcast
5:55 PM 15.8 °F 4.2 °F 8.6 °F 73% 30.10 in 4.0 mi South 9.2 mph - N/A   Overcast
6:15 PM 14.0 °F 0.5 °F 8.6 °F 79% 30.10 in 4.0 mi South 11.5 mph - N/A   Overcast
6:35 PM 14.0 °F 2.0 °F 8.6 °F 79% 30.11 in 5.0 mi South 9.2 mph - N/A   Overcast
6:55 PM 15.8 °F 4.2 °F 8.6 °F 73% 30.11 in 8.0 mi South 9.2 mph - N/A   Overcast
7:15 PM 15.8 °F 5.1 °F 8.6 °F 73% 30.12 in 7.0 mi South 8.1 mph - N/A   Overcast
7:35 PM 15.8 °F 3.4 °F 8.6 °F 73% 30.11 in 10.0 mi SSE 10.4 mph - N/A   Overcast
7:55 PM 14.0 °F -0.2 °F 8.6 °F 79% 30.10 in 10.0 mi SSE 12.7 mph - N/A   Overcast
8:15 PM 14.0 °F 0.5 °F 8.6 °F 79% 30.10 in 10.0 mi South 11.5 mph - N/A   Overcast
8:35 PM 14.0 °F 1.2 °F 8.6 °F 79% 30.10 in 8.0 mi SSE 10.4 mph - N/A   Overcast
8:55 PM 14.0 °F 1.2 °F 8.6 °F 79% 30.10 in 10.0 mi SSE 10.4 mph - N/A   Overcast
9:15 PM 14.0 °F -0.8 °F 8.6 °F 79% 30.09 in 9.0 mi SSE 13.8 mph - N/A   Overcast
9:35 PM 14.0 °F -0.8 °F 8.6 °F 79% 30.08 in 8.0 mi SSE 13.8 mph - N/A   Overcast
9:55 PM 14.0 °F 1.2 °F 8.6 °F 79% 30.09 in 7.0 mi SSE 10.4 mph - N/A   Overcast
10:15 PM 14.0 °F -0.2 °F 8.6 °F 79% 30.10 in 8.0 mi SSE 12.7 mph - N/A   Overcast
10:35 PM 14.0 °F -0.8 °F 8.6 °F 79% 30.09 in 7.0 mi SSE 13.8 mph - N/A   Overcast
10:55 PM 14.0 °F -0.8 °F 8.6 °F 79% 30.09 in 5.0 mi SSE 13.8 mph - N/A   Overcast
11:15 PM 14.0 °F 0.5 °F 8.6 °F 79% 30.08 in 5.0 mi South 11.5 mph - N/A   Overcast
11:35 PM 14.0 °F -0.2 °F 8.6 °F 79% 30.08 in 3.0 mi South 12.7 mph - N/A   Overcast
11:55 PM 14.0 °F -0.2 °F 10.4 °F 86% 30.07 in 3.0 mi South 12.7 mph - N/A   Overcast